createdAt,value
2023-01-23T00:00:22.993Z,2.70
2023-01-23T00:01:31.987Z,2.60
2023-01-23T00:02:34.497Z,2.70
2023-01-23T00:03:38.351Z,2.60
2023-01-23T00:04:42.082Z,2.60
2023-01-23T00:05:56.403Z,2.60
2023-01-23T00:07:00.081Z,2.60
2023-01-23T00:08:02.452Z,2.60
2023-01-23T00:09:06.258Z,2.70
2023-01-23T00:10:12.920Z,2.60
2023-01-23T00:11:18.160Z,2.60
2023-01-23T00:12:21.651Z,2.60
2023-01-23T00:13:24.273Z,2.60
2023-01-23T00:14:28.652Z,2.60
2023-01-23T00:15:33.071Z,2.60
2023-01-23T00:16:37.254Z,2.60
2023-01-23T00:17:41.468Z,2.60
2023-01-23T00:18:44.895Z,2.60
2023-01-23T00:19:47.310Z,2.60
2023-01-23T00:20:50.649Z,2.60
2023-01-23T00:21:53.130Z,2.60
2023-01-23T00:22:56.778Z,2.60
2023-01-23T00:24:01.656Z,2.60
2023-01-23T00:25:06.391Z,2.60
2023-01-23T00:26:15.685Z,2.60
2023-01-23T00:27:20.843Z,2.60
2023-01-23T00:28:27.380Z,2.60
2023-01-23T00:29:30.739Z,2.60
2023-01-23T00:30:33.349Z,2.60
2023-01-23T00:31:39.703Z,2.60
2023-01-23T00:32:44.003Z,2.60
2023-01-23T00:33:47.755Z,2.60
2023-01-23T00:34:50.328Z,2.60
2023-01-23T00:35:56.266Z,2.60
2023-01-23T00:37:00.487Z,2.60
2023-01-23T00:38:03.894Z,2.60
2023-01-23T00:39:09.138Z,2.60
2023-01-23T00:40:14.125Z,2.60
2023-01-23T00:41:18.234Z,2.60
2023-01-23T00:42:21.729Z,2.60
2023-01-23T00:43:25.403Z,2.60
2023-01-23T00:44:28.873Z,2.60
2023-01-23T00:45:31.299Z,2.60
2023-01-23T00:46:35.055Z,2.60
2023-01-23T00:47:37.606Z,2.60
2023-01-23T00:48:41.240Z,2.60
2023-01-23T00:49:43.679Z,2.60
2023-01-23T00:50:49.729Z,2.60
2023-01-23T00:51:53.178Z,2.60
2023-01-23T00:52:56.684Z,2.60
2023-01-23T00:53:59.436Z,2.60
2023-01-23T00:55:03.479Z,2.60
2023-01-23T00:56:07.683Z,2.60
2023-01-23T00:57:12.519Z,2.60
2023-01-23T00:58:16.506Z,2.60
2023-01-23T00:59:21.884Z,2.60
2023-01-23T01:00:25.069Z,2.60
2023-01-23T01:01:31.540Z,2.60
2023-01-23T01:02:34.749Z,2.60
2023-01-23T01:03:38.606Z,2.60
2023-01-23T01:04:41.016Z,2.60
2023-01-23T01:05:44.584Z,2.60
2023-01-23T01:06:47.111Z,2.60
2023-01-23T01:07:50.541Z,2.60
2023-01-23T01:08:53.034Z,2.60
2023-01-23T01:09:56.411Z,2.60
2023-01-23T01:11:00.348Z,2.60
2023-01-23T01:12:03.888Z,2.60
2023-01-23T01:13:09.431Z,2.60
2023-01-23T01:14:12.893Z,2.60
2023-01-23T01:15:15.918Z,2.60
2023-01-23T01:16:19.488Z,2.60
2023-01-23T01:17:21.900Z,2.60
2023-01-23T01:18:25.785Z,2.60
2023-01-23T01:19:28.352Z,2.60
2023-01-23T01:20:32.063Z,2.60
2023-01-23T01:21:35.905Z,2.60
2023-01-23T01:22:39.266Z,2.60
2023-01-23T01:23:41.943Z,2.60
2023-01-23T01:24:45.596Z,2.60
2023-01-23T01:25:48.249Z,2.60
2023-01-23T01:26:54.471Z,2.50
2023-01-23T01:27:58.621Z,2.60
2023-01-23T01:29:05.028Z,2.50
2023-01-23T01:30:08.929Z,2.50
2023-01-23T01:31:14.866Z,2.50
2023-01-23T01:32:17.625Z,2.50
2023-01-23T01:33:21.081Z,2.50
2023-01-23T01:34:23.757Z,2.50
2023-01-23T01:35:29.715Z,2.50
2023-01-23T01:36:33.359Z,2.50
2023-01-23T01:37:38.199Z,2.50
2023-01-23T01:38:42.249Z,2.50
2023-01-23T01:39:44.772Z,2.50
2023-01-23T01:40:48.189Z,2.50
2023-01-23T01:41:51.813Z,2.50
2023-01-23T01:42:59.714Z,2.50
2023-01-23T01:44:03.812Z,2.50
2023-01-23T01:45:29.029Z,2.50
2023-01-23T01:46:33.179Z,2.50
2023-01-23T01:47:36.503Z,2.50
2023-01-23T01:48:47.070Z,2.50
2023-01-23T01:49:53.177Z,2.50
2023-01-23T01:50:57.618Z,2.50
2023-01-23T01:52:06.454Z,2.50
2023-01-23T01:53:09.252Z,2.50
2023-01-23T01:54:21.012Z,2.50
2023-01-23T01:55:25.268Z,2.50
2023-01-23T01:56:30.423Z,2.50
2023-01-23T01:57:39.693Z,2.50
2023-01-23T01:58:43.757Z,2.50
2023-01-23T01:59:55.066Z,2.40
2023-01-23T02:00:57.612Z,2.50
2023-01-23T02:02:08.551Z,2.40
2023-01-23T02:03:11.334Z,2.50
2023-01-23T02:04:15.828Z,2.40
2023-01-23T02:05:26.254Z,2.50
2023-01-23T02:06:30.858Z,2.40
2023-01-23T02:07:38.820Z,2.40
2023-01-23T02:08:54.553Z,2.40
2023-01-23T02:09:57.718Z,2.40
2023-01-23T02:11:03.332Z,2.40
2023-01-23T02:12:06.127Z,2.50
2023-01-23T02:13:30.323Z,2.40
2023-01-23T02:14:32.992Z,2.40
2023-01-23T02:15:37.995Z,2.40
2023-01-23T02:16:43.883Z,2.40
2023-01-23T02:17:51.440Z,2.40
2023-01-23T02:19:02.146Z,2.40
2023-01-23T02:20:16.750Z,2.40
2023-01-23T02:21:25.101Z,2.40
2023-01-23T02:22:41.973Z,2.40
2023-01-23T02:24:14.717Z,2.40
2023-01-23T02:25:29.941Z,2.40
2023-01-23T02:26:40.369Z,2.40
2023-01-23T02:27:44.015Z,2.40
2023-01-23T02:28:51.640Z,2.40
2023-01-23T02:29:56.611Z,2.40
2023-01-23T02:31:02.934Z,2.40
2023-01-23T02:32:07.440Z,2.40
2023-01-23T02:33:13.379Z,2.40
2023-01-23T02:34:15.972Z,2.40
2023-01-23T02:35:28.054Z,2.40
2023-01-23T02:36:35.759Z,2.40
2023-01-23T02:37:46.957Z,2.40
2023-01-23T02:39:01.300Z,2.40
2023-01-23T02:40:06.182Z,2.40
2023-01-23T02:41:16.093Z,2.40
2023-01-23T02:42:23.048Z,2.40
2023-01-23T02:43:35.112Z,2.40
2023-01-23T02:44:40.465Z,2.40
2023-01-23T02:45:48.080Z,2.40
2023-01-23T02:46:53.606Z,2.40
2023-01-23T02:47:56.192Z,2.40
2023-01-23T02:48:59.800Z,2.40
2023-01-23T02:50:04.656Z,2.40
2023-01-23T02:51:09.010Z,2.40
2023-01-23T02:52:14.026Z,2.40
2023-01-23T02:53:18.342Z,2.40
2023-01-23T02:54:22.554Z,2.40
2023-01-23T02:55:26.556Z,2.40
2023-01-23T02:56:33.924Z,2.40
2023-01-23T02:57:37.716Z,2.40
2023-01-23T02:58:58.536Z,2.40
2023-01-23T03:00:16.242Z,2.40
2023-01-23T03:01:20.315Z,2.40
2023-01-23T03:02:23.229Z,2.50
2023-01-23T03:03:26.639Z,2.50
2023-01-23T03:04:29.115Z,2.50
2023-01-23T03:05:32.528Z,2.50
2023-01-23T03:06:37.684Z,2.50
2023-01-23T03:07:41.318Z,2.50
2023-01-23T03:08:47.850Z,2.50
2023-01-23T03:09:51.373Z,2.50
2023-01-23T03:10:54.020Z,2.50
2023-01-23T03:11:57.541Z,2.50
2023-01-23T03:13:03.425Z,2.50
2023-01-23T03:14:15.281Z,2.50
2023-01-23T03:15:18.034Z,2.50
2023-01-23T03:16:21.545Z,2.50
2023-01-23T03:17:25.325Z,2.50
2023-01-23T03:18:31.015Z,2.50
2023-01-23T03:19:34.629Z,2.50
2023-01-23T03:20:40.469Z,2.50
2023-01-23T03:21:43.888Z,2.50
2023-01-23T03:22:46.868Z,2.50
2023-01-23T03:23:50.270Z,2.50
2023-01-23T03:24:53.637Z,2.50
2023-01-23T03:25:58.647Z,2.50
2023-01-23T03:27:05.777Z,2.50
2023-01-23T03:28:31.074Z,2.50
2023-01-23T03:29:52.357Z,2.50
2023-01-23T03:30:54.798Z,2.50
2023-01-23T03:31:58.425Z,2.50
2023-01-23T03:33:00.923Z,2.50
2023-01-23T03:34:04.317Z,2.50
2023-01-23T03:35:13.996Z,2.50
2023-01-23T03:36:18.168Z,2.50
2023-01-23T03:37:21.827Z,2.50
2023-01-23T03:38:25.516Z,2.50
2023-01-23T03:39:46.746Z,2.50
2023-01-23T03:41:09.378Z,2.50
2023-01-23T03:42:13.161Z,2.50
2023-01-23T03:43:16.991Z,2.50
2023-01-23T03:44:25.263Z,2.50
2023-01-23T03:45:28.613Z,2.50
2023-01-23T03:46:34.946Z,2.50
2023-01-23T03:47:37.959Z,2.50
2023-01-23T03:48:45.200Z,2.50
2023-01-23T03:49:48.290Z,2.50
2023-01-23T03:50:51.890Z,2.50
2023-01-23T03:51:56.487Z,2.50
2023-01-23T03:53:00.114Z,2.50
2023-01-23T03:54:02.638Z,2.50
2023-01-23T03:55:07.110Z,2.50
2023-01-23T03:56:09.629Z,2.50
2023-01-23T03:57:13.514Z,2.50
2023-01-23T03:58:35.853Z,2.50
2023-01-23T03:59:39.531Z,2.50
2023-01-23T04:00:42.049Z,2.50
2023-01-23T04:01:45.691Z,2.50
2023-01-23T04:02:48.215Z,2.50
2023-01-23T04:03:53.633Z,2.50
2023-01-23T04:04:56.209Z,2.50
2023-01-23T04:06:00.949Z,2.50
2023-01-23T04:07:06.252Z,2.50
2023-01-23T04:08:11.628Z,2.50
2023-01-23T04:09:14.119Z,2.50
2023-01-23T04:10:20.010Z,2.50
2023-01-23T04:11:28.271Z,2.50
2023-01-23T04:12:31.724Z,2.50
2023-01-23T04:13:35.850Z,2.50
2023-01-23T04:14:39.274Z,2.50
2023-01-23T04:15:41.843Z,2.50
2023-01-23T04:16:45.306Z,2.50
2023-01-23T04:17:48.560Z,2.50
2023-01-23T04:18:54.192Z,2.50
2023-01-23T04:19:59.038Z,2.50
2023-01-23T04:21:03.232Z,2.50
2023-01-23T04:22:06.313Z,2.40
2023-01-23T04:23:16.571Z,2.50
2023-01-23T04:24:19.329Z,2.50
2023-01-23T04:25:22.790Z,2.50
2023-01-23T04:26:25.343Z,2.50
2023-01-23T04:27:29.200Z,2.50
2023-01-23T04:28:32.353Z,2.50
2023-01-23T04:29:39.205Z,2.50
2023-01-23T04:30:43.115Z,2.50
2023-01-23T04:31:53.679Z,2.50
2023-01-23T04:32:56.604Z,2.50
2023-01-23T04:34:00.030Z,2.50
2023-01-23T04:35:03.375Z,2.50
2023-01-23T04:36:09.031Z,2.50
2023-01-23T04:37:12.477Z,2.50
2023-01-23T04:38:15.647Z,2.50
2023-01-23T04:39:19.448Z,2.50
2023-01-23T04:40:24.374Z,2.50
2023-01-23T04:41:34.395Z,2.50
2023-01-23T04:42:41.292Z,2.50
2023-01-23T04:43:48.383Z,2.50
2023-01-23T04:44:52.526Z,2.50
2023-01-23T04:46:14.596Z,2.50
2023-01-23T04:47:42.747Z,2.50
2023-01-23T04:48:48.924Z,2.50
2023-01-23T04:49:53.975Z,2.50
2023-01-23T04:50:56.708Z,2.50
2023-01-23T04:52:00.269Z,2.50
2023-01-23T04:53:07.850Z,2.50
2023-01-23T04:54:14.166Z,2.50
2023-01-23T04:55:18.158Z,2.50
2023-01-23T04:56:22.834Z,2.50
2023-01-23T04:57:27.762Z,2.50
2023-01-23T04:58:38.415Z,2.50
2023-01-23T04:59:41.894Z,2.50
2023-01-23T05:00:47.138Z,2.50
2023-01-23T05:01:50.390Z,2.50
2023-01-23T05:02:54.655Z,2.50
2023-01-23T05:03:59.980Z,2.50
2023-01-23T05:05:03.483Z,2.50
2023-01-23T05:06:07.874Z,2.50
2023-01-23T05:07:12.248Z,2.50
2023-01-23T05:08:19.992Z,2.50
2023-01-23T05:09:30.403Z,2.50
2023-01-23T05:10:34.890Z,2.50
2023-01-23T05:11:46.507Z,2.50
2023-01-23T05:12:50.605Z,2.50
2023-01-23T05:13:53.073Z,2.50
2023-01-23T05:14:57.846Z,2.50
2023-01-23T05:16:02.626Z,2.50
2023-01-23T05:17:13.262Z,2.50
2023-01-23T05:18:21.783Z,2.50
2023-01-23T05:19:25.328Z,2.50
2023-01-23T05:20:28.924Z,2.50
2023-01-23T05:21:37.028Z,2.50
2023-01-23T05:22:39.576Z,2.50
2023-01-23T05:23:42.994Z,2.50
2023-01-23T05:24:45.825Z,2.50
2023-01-23T05:25:52.932Z,2.50
2023-01-23T05:26:56.590Z,2.50
2023-01-23T05:28:02.024Z,2.50
2023-01-23T05:29:06.395Z,2.50
2023-01-23T05:30:14.038Z,2.50
2023-01-23T05:31:18.095Z,2.50
2023-01-23T05:32:37.431Z,2.50
2023-01-23T05:33:44.300Z,2.50
2023-01-23T05:34:47.864Z,2.50
2023-01-23T05:36:00.450Z,2.50
2023-01-23T05:37:03.898Z,2.50
2023-01-23T05:38:11.984Z,2.50
2023-01-23T05:39:15.364Z,2.50
2023-01-23T05:40:19.724Z,2.50
2023-01-23T05:41:46.488Z,2.50
2023-01-23T05:43:16.113Z,2.50
2023-01-23T05:44:46.623Z,2.50
2023-01-23T05:46:00.693Z,2.50
2023-01-23T05:47:17.240Z,2.50
2023-01-23T05:48:19.784Z,2.50
2023-01-23T05:49:25.988Z,2.60
2023-01-23T05:50:28.409Z,2.50
2023-01-23T05:51:33.857Z,2.50
2023-01-23T05:52:39.382Z,2.60
2023-01-23T05:53:43.037Z,2.50
2023-01-23T05:54:47.129Z,2.50
2023-01-23T05:55:50.524Z,2.50
2023-01-23T05:56:53.119Z,2.50
2023-01-23T05:58:22.456Z,2.50
2023-01-23T05:59:43.318Z,2.50
2023-01-23T06:01:07.646Z,2.50
2023-01-23T06:02:30.973Z,2.60
2023-01-23T06:03:53.525Z,2.60
2023-01-23T06:05:19.916Z,2.50
2023-01-23T06:06:37.713Z,2.50
2023-01-23T06:07:40.284Z,2.60
2023-01-23T06:08:45.633Z,2.50
2023-01-23T06:09:48.124Z,2.60
2023-01-23T06:10:52.284Z,2.60
2023-01-23T06:11:58.228Z,2.60
2023-01-23T06:13:01.766Z,2.50
2023-01-23T06:14:04.938Z,2.60
2023-01-23T06:15:09.463Z,2.50
2023-01-23T06:16:12.242Z,2.60
2023-01-23T06:17:15.946Z,2.60
2023-01-23T06:18:20.174Z,2.60
2023-01-23T06:19:23.513Z,2.60
2023-01-23T06:20:26.198Z,2.50
2023-01-23T06:21:29.631Z,2.60
2023-01-23T06:22:32.573Z,2.60
2023-01-23T06:23:42.914Z,2.60
2023-01-23T06:24:45.519Z,2.60
2023-01-23T06:25:49.112Z,2.60
2023-01-23T06:26:55.405Z,2.60
2023-01-23T06:27:58.749Z,2.60
2023-01-23T06:29:04.990Z,2.60
2023-01-23T06:30:10.024Z,2.60
2023-01-23T06:31:19.125Z,2.60
2023-01-23T06:32:25.198Z,2.60
2023-01-23T06:33:31.506Z,2.60
2023-01-23T06:34:34.028Z,2.60
2023-01-23T06:35:39.658Z,2.60
2023-01-23T06:36:42.914Z,2.60
2023-01-23T06:37:46.816Z,2.60
2023-01-23T06:38:53.419Z,2.60
2023-01-23T06:40:01.055Z,2.60
2023-01-23T06:41:05.006Z,2.60
2023-01-23T06:42:14.752Z,2.60
2023-01-23T06:43:23.066Z,2.60
2023-01-23T06:44:30.216Z,2.60
2023-01-23T06:45:33.074Z,2.60
2023-01-23T06:46:36.685Z,2.60
2023-01-23T06:47:39.539Z,2.60
2023-01-23T06:48:44.441Z,2.60
2023-01-23T06:49:47.356Z,2.60
2023-01-23T06:50:50.947Z,2.60
2023-01-23T06:51:53.521Z,2.60
2023-01-23T06:52:59.349Z,2.60
2023-01-23T06:54:03.051Z,2.60
2023-01-23T06:55:07.085Z,2.60
2023-01-23T06:56:16.044Z,2.60
2023-01-23T06:57:19.131Z,2.60
2023-01-23T06:58:24.587Z,2.60
2023-01-23T06:59:28.033Z,2.60
2023-01-23T07:00:34.334Z,2.60
2023-01-23T07:01:39.603Z,2.60
2023-01-23T07:02:58.950Z,2.60
2023-01-23T07:04:04.106Z,2.60
2023-01-23T07:05:07.948Z,2.60
2023-01-23T07:06:12.741Z,2.60
2023-01-23T07:07:15.224Z,2.60
2023-01-23T07:08:19.583Z,2.60
2023-01-23T07:09:26.465Z,2.60
2023-01-23T07:10:43.580Z,2.60
2023-01-23T07:11:47.660Z,2.60
2023-01-23T07:12:52.579Z,2.60
2023-01-23T07:13:56.180Z,2.60
2023-01-23T07:14:58.723Z,2.60
2023-01-23T07:16:12.221Z,2.60
2023-01-23T07:17:15.917Z,2.60
2023-01-23T07:18:18.311Z,2.60
2023-01-23T07:19:23.123Z,2.50
2023-01-23T07:20:27.477Z,2.60
2023-01-23T07:21:36.122Z,2.60
2023-01-23T07:22:39.891Z,2.60
2023-01-23T07:23:42.281Z,2.60
2023-01-23T07:24:45.727Z,2.60
2023-01-23T07:25:48.332Z,2.60
2023-01-23T07:26:51.774Z,2.60
2023-01-23T07:27:54.215Z,2.60
2023-01-23T07:28:58.061Z,2.60
2023-01-23T07:30:00.734Z,2.60
2023-01-23T07:31:04.440Z,2.60
2023-01-23T07:32:11.498Z,2.60
2023-01-23T07:33:13.877Z,2.60
2023-01-23T07:34:17.411Z,2.60
2023-01-23T07:35:25.174Z,2.60
2023-01-23T07:36:27.639Z,2.60
2023-01-23T07:37:31.020Z,2.60
2023-01-23T07:38:34.934Z,2.60
2023-01-23T07:39:37.338Z,2.60
2023-01-23T07:40:42.964Z,2.60
2023-01-23T07:41:46.466Z,2.60
2023-01-23T07:42:50.634Z,2.60
2023-01-23T07:43:54.396Z,2.60
2023-01-23T07:44:57.010Z,2.60
2023-01-23T07:46:03.334Z,2.60
2023-01-23T07:47:05.869Z,2.60
2023-01-23T07:48:09.313Z,2.60
2023-01-23T07:49:12.853Z,2.60
2023-01-23T07:50:19.090Z,2.60
2023-01-23T07:51:24.197Z,2.60
2023-01-23T07:52:26.828Z,2.60
2023-01-23T07:53:30.828Z,2.60
2023-01-23T07:54:33.424Z,2.60
2023-01-23T07:55:39.884Z,2.60
2023-01-23T07:56:42.399Z,2.60
2023-01-23T07:57:45.938Z,2.60
2023-01-23T07:58:51.119Z,2.60
2023-01-23T07:59:54.939Z,2.60
2023-01-23T08:00:58.712Z,2.60
2023-01-23T08:02:01.230Z,2.60
2023-01-23T08:03:05.066Z,2.60
2023-01-23T08:04:07.538Z,2.60
2023-01-23T08:05:16.215Z,2.60
2023-01-23T08:06:19.852Z,2.60
2023-01-23T08:07:26.779Z,2.60
2023-01-23T08:08:30.678Z,2.60
2023-01-23T08:09:33.895Z,2.60
2023-01-23T08:10:37.450Z,2.60
2023-01-23T08:11:40.921Z,2.60
2023-01-23T08:12:45.867Z,2.60
2023-01-23T08:13:50.960Z,2.60
2023-01-23T08:14:57.536Z,2.60
2023-01-23T08:16:00.306Z,2.60
2023-01-23T08:17:06.386Z,2.60
2023-01-23T08:18:08.860Z,2.60
2023-01-23T08:19:12.378Z,2.60
2023-01-23T08:20:16.433Z,2.60
2023-01-23T08:21:19.996Z,2.70
2023-01-23T08:22:22.580Z,2.70
2023-01-23T08:23:28.722Z,2.70
2023-01-23T08:24:32.147Z,2.70
2023-01-23T08:25:36.029Z,2.70
2023-01-23T08:26:39.948Z,2.70
2023-01-23T08:27:43.465Z,2.70
2023-01-23T08:28:46.580Z,2.70
2023-01-23T08:29:50.106Z,2.70
2023-01-23T08:30:55.128Z,2.70
2023-01-23T08:31:58.834Z,2.80
2023-01-23T08:33:01.399Z,2.80
2023-01-23T08:34:05.061Z,2.80
2023-01-23T08:35:08.749Z,2.80
2023-01-23T08:36:18.358Z,2.80
2023-01-23T08:37:21.772Z,2.80
2023-01-23T08:38:26.571Z,2.80
2023-01-23T08:39:30.519Z,2.90
2023-01-23T08:40:33.015Z,2.90
2023-01-23T08:41:36.588Z,2.90
2023-01-23T08:42:39.039Z,2.90
2023-01-23T08:43:42.818Z,3.00
2023-01-23T08:44:46.386Z,3.00
2023-01-23T08:45:52.691Z,3.00
2023-01-23T08:46:56.259Z,3.00
2023-01-23T08:48:00.492Z,3.00
2023-01-23T08:49:04.219Z,3.10
2023-01-23T08:50:10.136Z,3.10
2023-01-23T08:51:16.259Z,3.10
2023-01-23T08:52:19.830Z,3.10
2023-01-23T08:53:22.406Z,3.10
2023-01-23T08:54:27.594Z,3.10
2023-01-23T08:55:32.310Z,3.20
2023-01-23T08:56:35.926Z,3.20
2023-01-23T08:57:38.368Z,3.20
2023-01-23T08:58:41.916Z,3.20
2023-01-23T08:59:45.808Z,3.20
2023-01-23T09:00:49.095Z,3.20
2023-01-23T09:01:54.944Z,3.20
2023-01-23T09:03:00.118Z,3.30
2023-01-23T09:04:03.573Z,3.30
2023-01-23T09:05:07.377Z,3.30
2023-01-23T09:06:12.319Z,3.30
2023-01-23T09:07:14.868Z,3.30
2023-01-23T09:08:21.394Z,3.40
2023-01-23T09:09:26.319Z,3.40
2023-01-23T09:10:28.695Z,3.50
2023-01-23T09:11:32.145Z,3.50
2023-01-23T09:12:35.968Z,3.50
2023-01-23T09:13:40.258Z,3.60
2023-01-23T09:14:44.010Z,3.60
2023-01-23T09:15:47.088Z,3.60
2023-01-23T09:16:50.695Z,3.70
2023-01-23T09:17:53.136Z,3.70
2023-01-23T09:18:56.886Z,3.80
2023-01-23T09:20:01.571Z,3.90
2023-01-23T09:21:10.200Z,4.00
2023-01-23T09:22:16.338Z,4.10
2023-01-23T09:23:20.330Z,4.20
2023-01-23T09:24:39.831Z,4.30
2023-01-23T09:25:46.925Z,4.40
2023-01-23T09:26:50.523Z,4.50
2023-01-23T09:27:53.951Z,4.70
2023-01-23T09:28:57.588Z,4.70
2023-01-23T09:30:00.146Z,4.80
2023-01-23T09:31:09.238Z,4.90
2023-01-23T09:32:12.563Z,5.00
2023-01-23T09:33:22.506Z,5.10
2023-01-23T09:34:26.369Z,5.10
2023-01-23T09:35:32.760Z,5.20
2023-01-23T09:36:42.892Z,5.20
2023-01-23T09:38:00.951Z,5.20
2023-01-23T09:39:04.648Z,5.20
2023-01-23T09:40:18.613Z,5.20
2023-01-23T09:41:30.150Z,5.20
2023-01-23T09:42:35.030Z,5.30
2023-01-23T09:43:46.695Z,5.30
2023-01-23T09:44:55.263Z,5.30
2023-01-23T09:46:09.334Z,5.30
2023-01-23T09:47:18.701Z,5.30
2023-01-23T09:48:29.042Z,5.30
2023-01-23T09:49:45.979Z,5.30
2023-01-23T09:51:03.310Z,5.30
2023-01-23T09:52:19.313Z,5.30
2023-01-23T09:53:28.820Z,5.30
2023-01-23T09:54:44.535Z,5.30
2023-01-23T09:55:58.160Z,5.30
2023-01-23T09:57:12.695Z,5.30
2023-01-23T09:58:23.312Z,5.40
2023-01-23T09:59:38.889Z,5.40
2023-01-23T10:00:48.823Z,5.40
2023-01-23T10:01:53.612Z,5.40
2023-01-23T10:02:57.265Z,5.40
2023-01-23T10:04:02.773Z,5.40
2023-01-23T10:05:13.805Z,5.40
2023-01-23T10:06:24.958Z,5.40
2023-01-23T10:07:56.863Z,5.40
2023-01-23T10:09:36.827Z,5.40
2023-01-23T10:11:01.477Z,5.40
2023-01-23T10:12:13.962Z,5.50
2023-01-23T10:13:20.262Z,5.50
2023-01-23T10:15:08.639Z,5.50
2023-01-23T10:16:49.839Z,5.60
2023-01-23T10:18:10.242Z,5.60
2023-01-23T10:19:33.515Z,5.70
2023-01-23T10:21:04.873Z,5.70
2023-01-23T10:22:29.594Z,5.80
2023-01-23T10:23:49.337Z,5.80
2023-01-23T10:24:55.926Z,5.90
2023-01-23T10:26:05.672Z,5.90
2023-01-23T10:27:21.724Z,5.90
2023-01-23T10:28:35.045Z,6.00
2023-01-23T10:29:45.156Z,6.00
2023-01-23T10:30:53.176Z,6.00
2023-01-23T10:32:01.441Z,6.00
2023-01-23T10:33:13.834Z,6.00
2023-01-23T10:34:26.722Z,6.10
2023-01-23T10:35:41.155Z,6.10
2023-01-23T10:37:09.979Z,6.10
2023-01-23T10:38:27.384Z,6.20
2023-01-23T10:39:40.320Z,6.20
2023-01-23T10:41:02.622Z,6.30
2023-01-23T10:42:12.838Z,6.40
2023-01-23T10:43:18.713Z,6.50
2023-01-23T10:44:25.581Z,6.50
2023-01-23T10:45:28.370Z,6.60
2023-01-23T10:46:36.063Z,6.70
2023-01-23T10:47:50.105Z,6.80
2023-01-23T10:49:00.536Z,6.90
2023-01-23T10:50:05.069Z,7.00
2023-01-23T10:51:35.678Z,7.10
2023-01-23T10:52:41.419Z,7.20
2023-01-23T10:53:44.205Z,7.40
2023-01-23T10:54:48.248Z,7.50
2023-01-23T10:55:52.932Z,7.60
2023-01-23T10:57:01.593Z,7.70
2023-01-23T10:58:25.189Z,7.90
2023-01-23T10:59:34.089Z,8.00
2023-01-23T11:00:44.759Z,8.30
2023-01-23T11:01:59.855Z,8.60
2023-01-23T11:03:33.540Z,9.00
2023-01-23T11:04:36.984Z,9.60
2023-01-23T11:05:52.663Z,10.10
2023-01-23T11:07:06.684Z,10.70
2023-01-23T11:08:26.169Z,11.20
2023-01-23T11:09:31.104Z,11.60
2023-01-23T11:10:36.916Z,11.80
2023-01-23T11:11:40.839Z,11.90
2023-01-23T11:12:50.414Z,12.00
2023-01-23T11:14:07.079Z,12.00
2023-01-23T11:15:22.664Z,12.00
2023-01-23T11:16:25.593Z,12.00
2023-01-23T11:17:35.404Z,12.20
2023-01-23T11:18:43.268Z,12.30
2023-01-23T11:19:49.648Z,12.50
2023-01-23T11:20:55.439Z,12.70
2023-01-23T11:22:06.098Z,12.80
2023-01-23T11:23:19.181Z,12.90
2023-01-23T11:24:39.796Z,13.00
2023-01-23T11:25:47.069Z,13.10
2023-01-23T11:26:58.536Z,13.20
2023-01-23T11:28:07.770Z,13.30
2023-01-23T11:29:27.010Z,13.50
2023-01-23T11:30:44.577Z,13.70
2023-01-23T11:31:49.539Z,14.00
2023-01-23T11:32:59.505Z,14.30
2023-01-23T11:34:12.582Z,14.60
2023-01-23T11:35:22.121Z,14.80
2023-01-23T11:36:51.578Z,15.20
2023-01-23T11:37:56.833Z,15.40
2023-01-23T11:39:16.861Z,15.80
2023-01-23T11:40:21.913Z,16.00
2023-01-23T11:41:30.807Z,16.30
2023-01-23T11:42:39.383Z,16.50
2023-01-23T11:43:42.531Z,16.80
2023-01-23T11:44:48.221Z,17.00
2023-01-23T11:46:18.031Z,17.20
2023-01-23T11:48:00.244Z,17.40
2023-01-23T11:49:29.008Z,17.70
2023-01-23T11:50:54.348Z,17.90
2023-01-23T11:52:16.089Z,18.00
2023-01-23T11:53:41.141Z,18.10
2023-01-23T11:55:09.634Z,18.20
2023-01-23T11:56:47.632Z,18.30
2023-01-23T11:58:05.040Z,18.30
2023-01-23T11:59:52.882Z,18.30
2023-01-23T12:01:06.817Z,18.30
2023-01-23T12:02:58.600Z,18.30
2023-01-23T12:04:35.439Z,18.30
2023-01-23T12:06:24.253Z,18.30
2023-01-23T12:07:28.699Z,18.30
2023-01-23T12:08:42.219Z,18.30
2023-01-23T12:09:59.764Z,18.30
2023-01-23T12:11:13.926Z,18.30
2023-01-23T12:12:29.321Z,18.40
2023-01-23T12:14:04.495Z,18.50
2023-01-23T12:15:23.131Z,18.70
2023-01-23T12:16:40.436Z,18.70
2023-01-23T12:17:54.334Z,18.80
2023-01-23T12:19:15.564Z,18.80
2023-01-23T12:20:47.541Z,18.80
2023-01-23T12:22:01.097Z,18.80
2023-01-23T12:23:31.213Z,18.90
2023-01-23T12:24:50.957Z,18.80
2023-01-23T12:26:08.216Z,18.80
2023-01-23T12:27:24.059Z,18.80
2023-01-23T12:28:56.653Z,18.80
2023-01-23T12:30:28.363Z,18.80
2023-01-23T12:31:54.142Z,18.80
2023-01-23T12:33:20.151Z,18.90
2023-01-23T12:34:42.821Z,18.90
2023-01-23T12:36:00.261Z,18.90
2023-01-23T12:37:30.844Z,18.90
2023-01-23T12:38:49.539Z,18.90
2023-01-23T12:40:08.631Z,19.00
2023-01-23T12:41:23.540Z,19.00
2023-01-23T12:42:32.328Z,19.00
2023-01-23T12:43:45.142Z,19.10
2023-01-23T12:45:03.080Z,19.10
2023-01-23T12:46:13.342Z,19.10
2023-01-23T12:47:23.893Z,19.10
2023-01-23T12:48:37.319Z,19.10
2023-01-23T12:49:44.313Z,19.00
2023-01-23T12:50:52.359Z,18.90
2023-01-23T12:52:05.141Z,18.60
2023-01-23T12:53:13.463Z,18.30
2023-01-23T12:54:37.349Z,18.00
2023-01-23T12:55:58.639Z,17.70
2023-01-23T12:57:09.327Z,17.20
2023-01-23T12:58:19.337Z,16.70
2023-01-23T12:59:32.178Z,16.30
2023-01-23T13:01:03.915Z,15.90
2023-01-23T13:02:18.878Z,15.40
2023-01-23T13:03:46.465Z,15.00
2023-01-23T13:05:08.352Z,14.50
2023-01-23T13:06:47.316Z,14.10
2023-01-23T13:08:01.704Z,13.70
2023-01-23T13:09:21.506Z,13.30
2023-01-23T13:11:16.159Z,13.10
2023-01-23T13:12:25.023Z,12.70
2023-01-23T13:13:28.435Z,12.50
2023-01-23T13:15:06.968Z,12.30
2023-01-23T13:16:20.349Z,12.10
2023-01-23T13:17:37.044Z,11.90
2023-01-23T13:18:55.502Z,11.70
2023-01-23T13:20:46.650Z,11.50
2023-01-23T13:22:09.477Z,11.40
2023-01-23T13:23:29.240Z,11.20
2023-01-23T13:25:05.011Z,11.00
2023-01-23T13:26:32.308Z,10.90
2023-01-23T13:27:50.491Z,10.80
2023-01-23T13:28:56.391Z,10.70
2023-01-23T13:30:02.393Z,10.70
2023-01-23T13:31:06.441Z,10.60
2023-01-23T13:32:24.003Z,10.50
2023-01-23T13:34:06.645Z,10.40
2023-01-23T13:36:01.259Z,10.30
2023-01-23T13:37:51.417Z,10.30
2023-01-23T13:39:24.677Z,10.20
2023-01-23T13:40:30.783Z,10.20
2023-01-23T13:41:34.008Z,10.10
2023-01-23T13:42:37.724Z,10.20
2023-01-23T13:43:53.684Z,10.20
2023-01-23T13:45:30.469Z,10.20
2023-01-23T14:20:26.793Z,9.90
2023-01-23T14:21:41.135Z,9.80
2023-01-23T14:22:46.899Z,9.70
2023-01-23T14:23:53.458Z,9.60
2023-01-23T14:24:57.317Z,9.60
2023-01-23T14:26:03.597Z,9.50
2023-01-23T14:27:21.564Z,9.50
2023-01-23T14:28:25.823Z,9.50
2023-01-23T14:29:32.075Z,9.40
2023-01-23T14:30:34.561Z,9.40
2023-01-23T14:31:45.204Z,9.40
2023-01-23T14:32:48.800Z,9.40
2023-01-23T14:34:01.888Z,9.40
2023-01-23T14:35:24.387Z,9.40
2023-01-23T14:36:28.386Z,9.30
2023-01-23T14:37:34.774Z,9.30
2023-01-23T14:38:39.484Z,9.20
2023-01-23T14:39:53.130Z,9.10
2023-01-23T14:41:04.532Z,9.10
2023-01-23T14:42:11.558Z,9.00
2023-01-23T14:43:24.091Z,8.90
2023-01-23T14:44:32.533Z,8.90
2023-01-23T14:45:37.558Z,8.80
2023-01-23T14:46:48.819Z,8.70
2023-01-23T14:48:04.513Z,8.70
2023-01-23T14:49:11.575Z,8.60
2023-01-23T14:50:19.483Z,8.50
2023-01-23T14:51:26.946Z,8.50
2023-01-23T14:52:31.469Z,8.40
2023-01-23T14:53:42.545Z,8.30
2023-01-23T14:54:53.770Z,8.30
2023-01-23T14:56:00.804Z,8.30
2023-01-23T14:57:05.664Z,8.20
2023-01-23T14:58:13.867Z,8.20
2023-01-23T14:59:24.380Z,8.10
2023-01-23T15:00:29.648Z,8.10
2023-01-23T15:01:36.732Z,8.00
2023-01-23T15:02:40.964Z,8.00
2023-01-23T15:03:46.552Z,7.90
2023-01-23T15:05:10.485Z,7.90
2023-01-23T15:06:22.869Z,7.80
2023-01-23T15:07:25.523Z,7.80
2023-01-23T15:08:33.614Z,7.80
2023-01-23T15:09:41.799Z,7.70
2023-01-23T15:10:47.741Z,7.70
2023-01-23T15:11:51.202Z,7.70
2023-01-23T15:12:57.807Z,7.70
2023-01-23T15:14:02.706Z,7.60
2023-01-23T15:15:17.487Z,7.60
2023-01-23T15:16:26.351Z,7.50
2023-01-23T15:17:33.238Z,7.50
2023-01-23T15:18:37.698Z,7.40
2023-01-23T15:19:42.699Z,7.40
2023-01-23T15:20:56.645Z,7.30
2023-01-23T15:22:18.293Z,7.30
2023-01-23T15:23:31.467Z,7.20
2023-01-23T15:24:35.098Z,7.20
2023-01-23T15:25:45.197Z,7.20
2023-01-23T15:27:07.724Z,7.20
2023-01-23T15:28:31.517Z,7.10
2023-01-23T15:29:36.472Z,7.10
2023-01-23T15:30:51.970Z,7.10
2023-01-23T15:32:01.453Z,7.00
2023-01-23T15:33:27.779Z,7.00
2023-01-23T15:34:35.554Z,7.00
2023-01-23T15:35:40.517Z,7.00
2023-01-23T15:36:49.521Z,7.00
2023-01-23T15:37:58.332Z,6.90
2023-01-23T15:39:04.193Z,6.90
2023-01-23T15:40:25.830Z,6.90
2023-01-23T15:41:45.600Z,6.90
2023-01-23T15:43:11.346Z,6.80
2023-01-23T15:44:15.488Z,6.80
2023-01-23T15:45:19.810Z,6.80
2023-01-23T15:46:23.729Z,6.80